Time;durP1;ratioP1;P1;durP2;ratioP2;P2;SDS_P1;SDS_P2;PMS_P1;PMS_P2;Temp;Humidity;BMP_temperature;BMP_pressure;BME280_temperature;BME280_humidity;BME280_pressure;Samples;Min_cycle;Max_cycle;Signal;HPM_P1;HPM_P2
2021/09/15 00:00:19;;;;;;;10.90;9.90;;;16.10;1.00;;;;;;5138000;27;20418;-83
2021/09/15 00:02:46;;;;;;;10.70;9.80;;;16.10;1.00;;;;;;5143662;27;20452;-85
2021/09/15 00:05:14;;;;;;;10.83;9.83;;;16.20;1.00;;;;;;5153987;27;20416;-84
2021/09/15 00:07:40;;;;;;;11.00;10.10;;;16.20;1.00;;;;;;5142801;27;20446;-84
2021/09/15 00:10:09;;;;;;;10.90;9.87;;;16.20;1.00;;;;;;5115015;27;20432;-85
2021/09/15 00:12:35;;;;;;;12.13;11.00;;;16.20;1.00;;;;;;5134415;27;20468;-84
2021/09/15 00:15:07;;;;;;;11.70;10.50;;;16.20;1.00;;;;;;5137379;27;20470;-84
2021/09/15 00:17:34;;;;;;;12.03;10.90;;;16.20;1.00;;;;;;5136087;27;20425;-83
2021/09/15 00:20:01;;;;;;;10.97;9.87;;;16.20;1.00;;;;;;5148651;27;21158;-85
2021/09/15 00:22:28;;;;;;;11.63;10.53;;;16.20;1.00;;;;;;5131487;27;20443;-86
2021/09/15 00:24:55;;;;;;;10.80;9.80;;;16.10;1.00;;;;;;5139598;27;20469;-85
2021/09/15 00:27:22;;;;;;;11.63;10.63;;;16.10;1.00;;;;;;5134352;27;21181;-85
2021/09/15 00:29:50;;;;;;;11.80;10.70;;;16.10;1.00;;;;;;5133343;27;20439;-82
2021/09/15 00:32:19;;;;;;;12.17;11.00;;;16.10;1.00;;;;;;5135133;27;20470;-85
2021/09/15 00:34:46;;;;;;;12.20;11.00;;;16.10;1.00;;;;;;5137869;27;21058;-82
2021/09/15 00:37:13;;;;;;;12.60;11.40;;;16.10;1.00;;;;;;5147744;27;20500;-85
2021/09/15 00:39:40;;;;;;;11.73;10.67;;;16.10;1.00;;;;;;5147438;27;20449;-84
2021/09/15 00:42:08;;;;;;;11.63;10.60;;;16.10;1.00;;;;;;5134489;27;20551;-84
2021/09/15 00:44:35;;;;;;;11.90;10.80;;;16.00;1.00;;;;;;5136763;27;20419;-85
2021/09/15 00:47:04;;;;;;;13.43;12.23;;;16.00;1.00;;;;;;5131540;27;20445;-86
2021/09/15 00:49:33;;;;;;;12.97;11.77;;;16.00;1.00;;;;;;5143969;27;20426;-87
2021/09/15 00:52:00;;;;;;;12.13;10.93;;;16.00;1.00;;;;;;5136586;27;20462;-85
2021/09/15 00:54:28;;;;;;;12.00;10.80;;;15.90;1.00;;;;;;5135216;27;20477;-85
2021/09/15 00:56:55;;;;;;;13.33;11.93;;;15.90;1.00;;;;;;5140083;27;20484;-85
2021/09/15 00:59:22;;;;;;;13.97;12.87;;;15.90;1.00;;;;;;5134973;27;20438;-85
2021/09/15 01:01:49;;;;;;;14.50;13.10;;;15.90;1.00;;;;;;5133328;27;20475;-85
2021/09/15 01:04:16;;;;;;;17.37;13.03;;;15.80;1.00;;;;;;5132529;27;20495;-86
2021/09/15 01:06:44;;;;;;;14.20;12.77;;;15.80;1.00;;;;;;5139990;27;20431;-85
2021/09/15 01:09:12;;;;;;;13.37;12.17;;;15.80;1.00;;;;;;5131621;27;20466;-85
2021/09/15 01:11:38;;;;;;;13.97;12.67;;;15.80;1.00;;;;;;5130701;27;21601;-84
2021/09/15 01:14:06;;;;;;;14.33;13.03;;;15.80;1.00;;;;;;5130691;27;20400;-86
2021/09/15 01:16:48;;;;;;;14.23;12.73;;;15.80;1.00;;;;;;5131257;27;20565;-84
2021/09/15 01:19:15;;;;;;;14.93;13.40;;;15.80;1.00;;;;;;5136857;27;20733;-86
2021/09/15 01:21:43;;;;;;;14.13;12.83;;;15.90;1.00;;;;;;5139418;27;20478;-84
2021/09/15 01:24:10;;;;;;;14.37;13.10;;;15.90;1.00;;;;;;5147008;27;20465;-86
2021/09/15 01:26:38;;;;;;;13.90;12.43;;;15.90;1.00;;;;;;5149843;27;20428;-86
2021/09/15 01:29:06;;;;;;;14.10;12.80;;;15.90;1.00;;;;;;5144195;27;20468;-84
2021/09/15 01:31:32;;;;;;;14.20;12.90;;;15.90;1.00;;;;;;5133357;27;20512;-85
2021/09/15 01:33:59;;;;;;;15.30;13.80;;;16.00;1.00;;;;;;5144010;27;20541;-86
2021/09/15 01:36:26;;;;;;;14.27;12.90;;;15.90;1.00;;;;;;5136838;27;20463;-86
2021/09/15 01:38:54;;;;;;;13.47;12.27;;;16.00;1.00;;;;;;5136262;27;20843;-85
2021/09/15 01:41:21;;;;;;;14.60;13.30;;;16.00;1.00;;;;;;5138392;27;20455;-86
2021/09/15 01:43:51;;;;;;;15.00;13.60;;;16.00;1.00;;;;;;5139146;27;20454;-86
2021/09/15 01:46:21;;;;;;;18.00;13.07;;;16.10;1.00;;;;;;5134085;27;20485;-85
2021/09/15 01:48:48;;;;;;;14.43;13.07;;;16.00;1.00;;;;;;5119838;27;20543;-85
2021/09/15 01:51:15;;;;;;;16.00;14.50;;;16.00;1.00;;;;;;5137329;27;20480;-86
2021/09/15 01:53:41;;;;;;;15.07;13.57;;;15.90;1.00;;;;;;5140398;27;20410;-85
2021/09/15 01:56:09;;;;;;;14.50;13.07;;;15.90;1.00;;;;;;5139522;27;20547;-84
2021/09/15 01:58:36;;;;;;;14.53;13.07;;;15.80;1.00;;;;;;5133693;27;20445;-85
2021/09/15 02:01:02;;;;;;;16.73;15.07;;;15.70;1.00;;;;;;5128710;27;20851;-84
2021/09/15 02:03:29;;;;;;;16.23;14.63;;;15.70;1.00;;;;;;5113618;27;20432;-84
2021/09/15 02:05:56;;;;;;;15.90;14.50;;;15.70;1.00;;;;;;5128006;27;20442;-85
2021/09/15 02:08:23;;;;;;;15.73;14.23;;;15.70;1.00;;;;;;5131794;27;20451;-84
2021/09/15 02:10:49;;;;;;;16.23;14.73;;;15.70;1.00;;;;;;5132291;27;20882;-85
2021/09/15 02:13:17;;;;;;;16.03;14.43;;;15.60;1.00;;;;;;5132010;27;20550;-85
2021/09/15 02:15:44;;;;;;;16.07;14.57;;;15.60;1.00;;;;;;5132027;27;20529;-84
2021/09/15 02:18:11;;;;;;;16.27;14.70;;;15.60;1.00;;;;;;5139998;27;21204;-84
2021/09/15 02:20:39;;;;;;;19.77;15.23;;;15.60;1.00;;;;;;5139795;27;20457;-84
2021/09/15 02:23:06;;;;;;;18.07;15.73;;;15.60;1.00;;;;;;5136610;27;20454;-84
2021/09/15 02:25:33;;;;;;;17.03;15.43;;;15.60;1.00;;;;;;5113912;27;20573;-85
2021/09/15 02:27:59;;;;;;;18.87;17.07;;;15.60;1.00;;;;;;5142088;27;20448;-84
2021/09/15 02:30:27;;;;;;;17.40;15.77;;;15.50;1.00;;;;;;5143829;27;20487;-84
2021/09/15 02:32:54;;;;;;;16.90;15.30;;;15.50;1.00;;;;;;5155403;27;20864;-83
2021/09/15 02:35:21;;;;;;;18.37;16.53;;;15.50;1.00;;;;;;5147466;27;20976;-83
2021/09/15 02:37:47;;;;;;;17.47;15.87;;;15.50;1.00;;;;;;5128709;27;22217;-84
2021/09/15 02:40:14;;;;;;;16.50;15.00;;;15.50;1.00;;;;;;5138693;27;21430;-83
2021/09/15 02:42:41;;;;;;;18.83;15.80;;;15.60;1.00;;;;;;5137049;27;20542;-83
2021/09/15 02:45:08;;;;;;;17.23;15.83;;;15.60;1.00;;;;;;5141132;27;20437;-84
2021/09/15 02:47:36;;;;;;;16.53;14.93;;;15.60;1.00;;;;;;5145667;27;20410;-83
2021/09/15 02:50:03;;;;;;;18.30;16.53;;;15.70;1.00;;;;;;5143579;27;20533;-83
2021/09/15 02:52:30;;;;;;;17.73;16.23;;;15.60;1.00;;;;;;5142827;27;20450;-83
2021/09/15 02:54:57;;;;;;;18.27;16.37;;;15.60;1.00;;;;;;5153872;27;20515;-84
2021/09/15 02:57:23;;;;;;;17.47;15.67;;;15.60;1.00;;;;;;5160096;27;20406;-83
2021/09/15 02:59:50;;;;;;;17.90;16.13;;;15.70;1.00;;;;;;5149427;27;20507;-84
2021/09/15 03:02:17;;;;;;;18.83;17.17;;;15.60;1.00;;;;;;5136411;27;20525;-84
2021/09/15 03:04:45;;;;;;;17.43;15.80;;;15.70;1.00;;;;;;5143730;27;20533;-84
2021/09/15 03:07:11;;;;;;;16.57;15.07;;;15.70;1.00;;;;;;5139392;27;21051;-84
2021/09/15 03:09:38;;;;;;;16.80;15.37;;;15.70;1.00;;;;;;5137810;27;20468;-83
2021/09/15 03:12:05;;;;;;;18.80;17.10;;;15.70;1.00;;;;;;5139777;27;20442;-83
2021/09/15 03:14:32;;;;;;;19.00;16.80;;;15.70;1.00;;;;;;5139686;27;20462;-83
2021/09/15 03:16:59;;;;;;;19.27;17.37;;;15.70;1.00;;;;;;5125188;27;20454;-84
2021/09/15 03:19:26;;;;;;;17.83;16.13;;;15.70;1.00;;;;;;5142609;27;20582;-85
2021/09/15 03:21:54;;;;;;;18.40;16.70;;;15.70;1.00;;;;;;5131069;27;20419;-84
2021/09/15 03:24:21;;;;;;;18.03;16.43;;;15.70;1.00;;;;;;5154243;27;21279;-84
2021/09/15 03:26:47;;;;;;;18.70;16.70;;;15.70;1.00;;;;;;5150133;27;20492;-83
2021/09/15 03:29:14;;;;;;;17.93;16.33;;;15.60;1.00;;;;;;5154406;27;21121;-84
2021/09/15 03:31:41;;;;;;;18.40;16.03;;;15.60;1.00;;;;;;5154986;27;20434;-83
2021/09/15 03:34:07;;;;;;;18.03;16.23;;;15.60;1.00;;;;;;5140349;27;20948;-84
2021/09/15 03:36:34;;;;;;;18.77;17.17;;;15.70;1.00;;;;;;5164334;27;20422;-84
2021/09/15 03:39:03;;;;;;;17.97;16.47;;;15.60;1.00;;;;;;5172580;27;20419;-85
2021/09/15 03:41:30;;;;;;;19.57;17.60;;;15.60;1.00;;;;;;5168862;27;20438;-84
2021/09/15 03:43:57;;;;;;;19.43;17.73;;;15.70;1.00;;;;;;5174235;27;20469;-85
2021/09/15 03:46:24;;;;;;;18.37;16.40;;;15.60;1.00;;;;;;5170438;27;20425;-84
2021/09/15 03:48:51;;;;;;;18.70;16.87;;;15.50;1.00;;;;;;5172777;27;20437;-84
2021/09/15 03:51:18;;;;;;;20.47;18.57;;;15.50;1.00;;;;;;5171216;27;21994;-82
2021/09/15 03:53:44;;;;;;;20.57;18.77;;;15.50;1.00;;;;;;5174370;27;20396;-83
2021/09/15 03:56:12;;;;;;;19.13;17.47;;;15.50;1.00;;;;;;5171976;27;20415;-84
2021/09/15 03:58:39;;;;;;;20.23;18.33;;;15.50;1.00;;;;;;5169811;27;20418;-84
2021/09/15 04:01:06;;;;;;;20.37;18.60;;;15.50;1.00;;;;;;5173356;27;20447;-84
2021/09/15 04:03:33;;;;;;;19.73;18.00;;;15.50;1.00;;;;;;5174533;27;20451;-83
2021/09/15 04:06:00;;;;;;;20.03;18.40;;;15.50;1.00;;;;;;5166563;27;20413;-84
2021/09/15 04:08:26;;;;;;;21.30;19.40;;;15.50;1.00;;;;;;5172271;27;20427;-84
2021/09/15 04:10:53;;;;;;;21.87;19.67;;;15.50;1.00;;;;;;5172482;27;20458;-84
2021/09/15 04:13:22;;;;;;;19.40;17.70;;;15.50;1.00;;;;;;5152430;27;20430;-84
2021/09/15 04:15:49;;;;;;;20.90;18.90;;;15.50;1.00;;;;;;5171518;27;20404;-84
2021/09/15 04:18:16;;;;;;;21.00;19.20;;;15.50;1.00;;;;;;5171226;27;20421;-85
2021/09/15 04:20:43;;;;;;;20.03;18.20;;;15.50;1.00;;;;;;5152851;27;20488;-85
2021/09/15 04:23:17;;;;;;;21.00;19.00;;;15.50;1.00;;;;;;5167211;27;20415;-86
2021/09/15 04:33:31;;;;;;;21.60;19.30;;;15.50;1.00;;;;;;5374519;22;20426;-86
2021/09/15 04:35:57;;;;;;;21.13;19.13;;;15.50;1.00;;;;;;5063639;28;20426;-86
2021/09/15 04:38:24;;;;;;;21.80;19.83;;;15.50;1.00;;;;;;5071321;28;20427;-82
2021/09/15 04:40:54;;;;;;;21.30;19.20;;;15.60;1.00;;;;;;5467358;22;21096;-86
2021/09/15 04:43:21;;;;;;;19.30;17.53;;;15.60;1.00;;;;;;5030413;28;20455;-78
2021/09/15 04:45:48;;;;;;;21.53;19.60;;;15.60;1.00;;;;;;5022115;28;20478;-80
2021/09/15 04:48:15;;;;;;;19.53;17.80;;;15.70;1.00;;;;;;5019132;28;20568;-80
2021/09/15 04:50:43;;;;;;;20.73;18.90;;;15.70;1.00;;;;;;5018369;28;20454;-79
2021/09/15 04:53:10;;;;;;;20.73;18.80;;;15.70;1.00;;;;;;5028906;28;20637;-78
2021/09/15 04:55:36;;;;;;;21.53;19.60;;;15.70;1.00;;;;;;5018256;28;21029;-78
2021/09/15 04:58:04;;;;;;;19.80;18.00;;;15.70;1.00;;;;;;5020069;28;20467;-80
2021/09/15 05:00:31;;;;;;;21.47;19.37;;;15.70;1.00;;;;;;5018468;28;20416;-81
2021/09/15 05:02:58;;;;;;;20.40;18.50;;;15.70;1.00;;;;;;5019534;28;20458;-79
2021/09/15 05:05:24;;;;;;;20.67;18.80;;;15.70;1.00;;;;;;5016170;28;20529;-79
2021/09/15 05:07:53;;;;;;;20.83;18.87;;;15.70;1.00;;;;;;5020527;28;20467;-78
2021/09/15 05:10:24;;;;;;;20.77;18.97;;;15.80;1.00;;;;;;5015989;28;20529;-78
2021/09/15 05:12:51;;;;;;;21.43;19.30;;;15.90;1.00;;;;;;5013154;28;20424;-78
2021/09/15 05:15:18;;;;;;;20.17;18.37;;;15.90;1.00;;;;;;5018018;28;20500;-78
2021/09/15 05:17:45;;;;;;;20.43;18.47;;;15.90;1.00;;;;;;5010031;28;20599;-78
2021/09/15 05:20:16;;;;;;;20.07;18.10;;;16.00;1.00;;;;;;5010662;28;20543;-78
2021/09/15 05:22:43;;;;;;;22.53;20.47;;;16.00;1.00;;;;;;5007790;28;20463;-78
2021/09/15 05:25:12;;;;;;;23.83;21.77;;;16.00;1.00;;;;;;5013682;28;20509;-79
2021/09/15 05:27:39;;;;;;;21.80;19.80;;;16.00;1.00;;;;;;5005030;28;20737;-77
2021/09/15 05:30:06;;;;;;;21.43;19.43;;;16.00;1.00;;;;;;5016756;28;20494;-77
2021/09/15 05:32:33;;;;;;;22.50;20.27;;;16.00;1.00;;;;;;5011096;28;20485;-79
2021/09/15 05:35:00;;;;;;;21.97;19.90;;;16.10;1.00;;;;;;5011145;28;21931;-79
2021/09/15 05:37:27;;;;;;;20.97;19.17;;;16.20;1.00;;;;;;5006195;28;20510;-79
2021/09/15 05:39:54;;;;;;;20.03;18.00;;;16.20;1.00;;;;;;5008453;28;20475;-79
2021/09/15 05:42:22;;;;;;;21.33;19.50;;;16.20;1.00;;;;;;5020150;28;20522;-78
2021/09/15 05:44:49;;;;;;;21.67;19.77;;;16.20;1.00;;;;;;5002270;28;20482;-79
2021/09/15 05:47:15;;;;;;;21.77;19.83;;;16.30;1.00;;;;;;5002417;28;20475;-79
2021/09/15 05:49:42;;;;;;;23.70;21.70;;;16.40;1.00;;;;;;5009616;28;20483;-79
2021/09/15 05:52:09;;;;;;;19.47;17.67;;;16.40;1.00;;;;;;5008528;28;20531;-78
2021/09/15 05:54:36;;;;;;;20.87;18.90;;;16.50;1.00;;;;;;5010121;28;20480;-79
2021/09/15 05:57:03;;;;;;;20.97;18.77;;;16.60;1.00;;;;;;4986952;28;20463;-80
2021/09/15 05:59:31;;;;;;;20.90;18.90;;;16.60;1.00;;;;;;4992245;28;20510;-80
2021/09/15 06:01:58;;;;;;;21.47;19.60;;;16.60;1.00;;;;;;5002841;28;20567;-79
2021/09/15 06:04:24;;;;;;;21.33;19.43;;;16.60;1.00;;;;;;4995837;28;20590;-78
2021/09/15 06:06:51;;;;;;;20.00;18.30;;;16.70;1.00;;;;;;5007656;28;20893;-81
2021/09/15 06:09:18;;;;;;;19.87;17.73;;;16.80;1.00;;;;;;4996224;28;20455;-79
2021/09/15 06:11:44;;;;;;;21.30;18.70;;;16.80;1.00;;;;;;4996855;28;20435;-79
2021/09/15 06:14:11;;;;;;;21.10;19.07;;;16.80;1.00;;;;;;4997653;28;20453;-79
2021/09/15 06:16:39;;;;;;;23.27;21.10;;;16.90;1.00;;;;;;4995855;28;20981;-79
2021/09/15 06:19:06;;;;;;;20.10;18.00;;;16.90;1.00;;;;;;4996536;28;20438;-79
2021/09/15 06:21:32;;;;;;;20.40;18.50;;;16.90;1.00;;;;;;5000249;28;20472;-79
2021/09/15 06:23:59;;;;;;;20.53;18.53;;;16.80;1.00;;;;;;4993506;28;20452;-79
2021/09/15 06:26:26;;;;;;;25.23;20.23;;;16.70;1.00;;;;;;4993739;28;20533;-78
2021/09/15 06:28:53;;;;;;;21.40;19.40;;;16.70;1.00;;;;;;4998381;28;20431;-78
2021/09/15 06:31:21;;;;;;;20.00;18.20;;;16.80;1.00;;;;;;5000056;28;20476;-79
2021/09/15 06:33:49;;;;;;;21.07;19.17;;;16.90;1.00;;;;;;4996678;28;20436;-79
2021/09/15 06:36:16;;;;;;;19.80;18.10;;;16.90;1.00;;;;;;4996692;28;20562;-78
2021/09/15 06:38:44;;;;;;;19.83;18.03;;;17.00;1.00;;;;;;4996935;28;20430;-78
2021/09/15 06:41:11;;;;;;;19.70;17.90;;;17.10;1.00;;;;;;5000600;28;20473;-79
2021/09/15 06:43:38;;;;;;;20.33;18.47;;;17.20;1.00;;;;;;4996768;28;20612;-79
2021/09/15 06:46:05;;;;;;;19.70;17.90;;;17.30;1.00;;;;;;4989302;28;21492;-78
2021/09/15 06:48:32;;;;;;;18.53;16.77;;;17.40;1.00;;;;;;4993765;28;20798;-79
2021/09/15 06:51:00;;;;;;;19.00;17.30;;;17.50;1.00;;;;;;5001539;28;20456;-79
2021/09/15 06:53:26;;;;;;;18.90;17.03;;;17.50;1.00;;;;;;4999863;28;20484;-79
2021/09/15 06:55:53;;;;;;;19.77;17.97;;;17.60;1.00;;;;;;4996915;28;20526;-80
2021/09/15 06:58:20;;;;;;;19.33;17.57;;;17.60;1.00;;;;;;4997429;28;20583;-79
2021/09/15 07:00:47;;;;;;;17.80;16.03;;;17.70;1.00;;;;;;4995682;28;20462;-79
2021/09/15 07:03:14;;;;;;;18.97;17.30;;;17.80;1.00;;;;;;4992459;28;20559;-78
2021/09/15 07:05:41;;;;;;;19.50;17.70;;;17.80;1.00;;;;;;4998851;28;20455;-79
2021/09/15 07:08:10;;;;;;;39.37;35.17;;;17.80;1.00;;;;;;4992307;28;20430;-80
2021/09/15 07:10:39;;;;;;;18.03;16.43;;;17.80;1.00;;;;;;4991767;28;20464;-78
2021/09/15 07:13:07;;;;;;;19.50;17.60;;;17.90;1.00;;;;;;4991136;28;20453;-78
2021/09/15 07:15:33;;;;;;;18.83;17.13;;;17.90;1.00;;;;;;4997820;28;20449;-79
2021/09/15 07:18:00;;;;;;;18.90;17.20;;;17.90;1.00;;;;;;4997386;28;20462;-78
2021/09/15 07:20:27;;;;;;;20.10;18.27;;;18.00;1.00;;;;;;4994339;28;20433;-78
2021/09/15 07:22:54;;;;;;;17.77;16.27;;;18.10;1.00;;;;;;4994590;28;20499;-78
2021/09/15 07:25:22;;;;;;;19.60;17.93;;;18.20;1.00;;;;;;4996184;28;20459;-79
2021/09/15 07:27:48;;;;;;;19.63;17.83;;;18.20;1.00;;;;;;4992884;28;21359;-77
2021/09/15 07:30:15;;;;;;;18.30;16.70;;;18.30;1.00;;;;;;4995789;28;20656;-78
2021/09/15 07:32:42;;;;;;;17.57;15.77;;;18.40;1.00;;;;;;4992136;28;20459;-78
2021/09/15 07:35:12;;;;;;;18.33;16.73;;;18.50;1.00;;;;;;4996180;28;20467;-79
2021/09/15 07:37:39;;;;;;;17.90;16.20;;;18.70;1.00;;;;;;4999837;28;22038;-79
2021/09/15 07:40:08;;;;;;;17.83;16.33;;;18.80;1.00;;;;;;4994866;28;21249;-78
2021/09/15 07:42:37;;;;;;;17.07;15.47;;;18.90;1.00;;;;;;4995587;28;20466;-78
2021/09/15 07:45:05;;;;;;;16.60;15.10;;;19.20;1.00;;;;;;4996763;28;20450;-78
2021/09/15 07:47:32;;;;;;;17.17;15.60;;;19.30;1.00;;;;;;4994002;28;20457;-79
2021/09/15 07:49:59;;;;;;;16.07;14.70;;;19.50;1.00;;;;;;4988871;28;20465;-79
2021/09/15 07:52:25;;;;;;;16.17;14.77;;;19.60;1.00;;;;;;4992915;28;20499;-80
2021/09/15 07:54:52;;;;;;;16.53;14.83;;;19.60;1.00;;;;;;4995303;28;20468;-79
2021/09/15 07:57:20;;;;;;;17.30;14.93;;;19.70;1.00;;;;;;4998524;28;20476;-79
2021/09/15 07:59:48;;;;;;;16.07;14.67;;;19.80;1.00;;;;;;5000408;28;20414;-80
2021/09/15 08:02:15;;;;;;;16.60;15.10;;;19.90;1.00;;;;;;4997683;28;20455;-79
2021/09/15 08:04:41;;;;;;;14.30;13.10;;;19.90;1.00;;;;;;4992189;28;20486;-79
2021/09/15 08:07:08;;;;;;;15.40;14.20;;;20.00;1.00;;;;;;4999071;28;21281;-78
2021/09/15 08:09:35;;;;;;;16.70;15.30;;;20.10;1.00;;;;;;4995774;28;20461;-79
2021/09/15 08:12:02;;;;;;;16.27;14.87;;;20.20;1.00;;;;;;4997304;28;21242;-79
2021/09/15 08:14:29;;;;;;;17.10;15.37;;;20.30;1.00;;;;;;4998166;28;20458;-79
2021/09/15 08:16:58;;;;;;;15.53;14.13;;;20.30;1.00;;;;;;4988948;28;20483;-78
2021/09/15 08:19:26;;;;;;;14.97;13.63;;;20.40;1.00;;;;;;4996738;28;20502;-81
2021/09/15 08:21:53;;;;;;;15.43;14.03;;;20.50;1.00;;;;;;4992455;28;20524;-79
2021/09/15 08:24:20;;;;;;;15.83;14.50;;;20.70;1.00;;;;;;4997064;28;21476;-79
2021/09/15 08:26:47;;;;;;;15.40;14.00;;;20.90;1.00;;;;;;4996095;28;20463;-79
2021/09/15 08:29:14;;;;;;;15.13;14.00;;;21.10;1.00;;;;;;4992111;28;20437;-79
2021/09/15 08:31:40;;;;;;;15.60;14.20;;;21.20;1.00;;;;;;4995852;28;20645;-78
2021/09/15 08:34:08;;;;;;;15.80;14.40;;;21.20;1.00;;;;;;4987796;28;21387;-80
2021/09/15 08:36:36;;;;;;;14.23;13.07;;;21.20;1.00;;;;;;4990104;28;20447;-80
2021/09/15 08:39:05;;;;;;;15.37;13.97;;;21.30;1.00;;;;;;4991438;28;20477;-80
2021/09/15 08:41:32;;;;;;;15.00;13.70;;;21.60;1.00;;;;;;5000245;28;20533;-79
2021/09/15 08:43:59;;;;;;;13.43;12.33;;;21.70;1.00;;;;;;4995669;28;20491;-79
2021/09/15 08:46:28;;;;;;;14.97;13.77;;;21.80;1.00;;;;;;4997094;28;21235;-81
2021/09/15 08:48:58;;;;;;;14.90;13.20;;;22.00;1.00;;;;;;4999217;28;20549;-79
2021/09/15 08:51:27;;;;;;;14.70;13.40;;;22.10;1.00;;;;;;4992671;28;21534;-78
2021/09/15 08:53:55;;;;;;;14.47;12.90;;;22.40;1.00;;;;;;4994523;28;21282;-79
2021/09/15 08:56:22;;;;;;;13.53;12.30;;;22.60;1.00;;;;;;4995852;28;20867;-78
2021/09/15 08:58:49;;;;;;;12.73;11.63;;;22.80;1.00;;;;;;5004115;28;21883;-80
2021/09/15 09:01:18;;;;;;;12.77;11.53;;;22.90;1.00;;;;;;4998442;28;20470;-79
2021/09/15 09:03:46;;;;;;;12.17;11.20;;;23.00;1.00;;;;;;4990383;28;20459;-79
2021/09/15 09:06:14;;;;;;;11.97;10.97;;;23.20;1.00;;;;;;5000100;28;20578;-80
2021/09/15 09:08:44;;;;;;;13.13;12.03;;;23.30;1.00;;;;;;5003205;28;20624;-80
2021/09/15 09:11:12;;;;;;;11.90;10.77;;;23.60;1.00;;;;;;4992305;28;21199;-79
2021/09/15 09:13:48;;;;;;;11.37;10.47;;;23.90;1.00;;;;;;4990504;28;20443;-80
2021/09/15 09:16:17;;;;;;;12.10;11.03;;;24.40;1.00;;;;;;4991063;28;20443;-79
2021/09/15 09:18:56;;;;;;;11.77;10.87;;;25.20;1.00;;;;;;4993202;28;21332;-79
2021/09/15 09:21:26;;;;;;;10.50;9.57;;;26.30;1.00;;;;;;4993583;28;20415;-80
2021/09/15 09:23:58;;;;;;;10.20;9.40;;;27.40;1.00;;;;;;4995620;28;20427;-80
2021/09/15 09:26:45;;;;;;;10.10;9.30;;;27.70;1.00;;;;;;4994620;28;20461;-80
2021/09/15 09:29:13;;;;;;;11.40;10.40;;;27.30;1.00;;;;;;4995385;28;20476;-79
2021/09/15 09:31:40;;;;;;;9.73;8.93;;;27.10;1.00;;;;;;4994633;28;20892;-79
2021/09/15 09:34:07;;;;;;;10.90;9.90;;;27.20;1.00;;;;;;4995318;28;20685;-81
2021/09/15 09:36:33;;;;;;;11.10;10.20;;;26.90;1.00;;;;;;4995934;28;20541;-79
2021/09/15 09:39:10;;;;;;;10.50;9.60;;;26.60;1.00;;;;;;4984395;28;20547;-80
2021/09/15 09:41:36;;;;;;;10.77;9.90;;;26.20;1.00;;;;;;4994011;28;21443;-80
2021/09/15 09:44:04;;;;;;;11.37;10.37;;;25.80;1.00;;;;;;4993043;28;20467;-79
2021/09/15 09:46:34;;;;;;;10.90;9.90;;;25.60;1.00;;;;;;4994278;28;20453;-80
2021/09/15 09:49:02;;;;;;;11.10;10.30;;;25.30;1.00;;;;;;4992731;28;20454;-79
2021/09/15 09:51:32;;;;;;;10.50;9.50;;;25.20;1.00;;;;;;5005414;28;20466;-79
2021/09/15 09:54:21;;;;;;;12.47;11.20;;;24.90;1.00;;;;;;4998924;28;20547;-82
2021/09/15 09:56:50;;;;;;;10.80;9.80;;;24.90;1.00;;;;;;4997777;28;20476;-80
2021/09/15 09:59:19;;;;;;;11.13;10.23;;;25.00;1.00;;;;;;4997752;28;21409;-78
2021/09/15 10:01:47;;;;;;;10.57;9.57;;;25.10;1.00;;;;;;4989893;28;20466;-81
2021/09/15 10:04:15;;;;;;;10.90;9.90;;;25.20;1.00;;;;;;4995962;28;20621;-80
2021/09/15 10:06:44;;;;;;;11.70;10.70;;;25.30;1.00;;;;;;4992448;28;20544;-81
2021/09/15 10:09:12;;;;;;;10.83;10.03;;;25.20;1.00;;;;;;4993973;28;21275;-80
2021/09/15 10:11:40;;;;;;;9.93;9.13;;;25.20;1.00;;;;;;4991031;28;20572;-79
2021/09/15 10:14:10;;;;;;;10.27;9.47;;;25.30;1.00;;;;;;4998259;28;21457;-80
2021/09/15 10:16:43;;;;;;;10.20;9.37;;;25.60;1.00;;;;;;4993425;28;20438;-80
2021/09/15 10:19:12;;;;;;;10.90;9.90;;;26.40;1.00;;;;;;4994002;28;20452;-80
2021/09/15 10:21:39;;;;;;;10.37;9.37;;;27.30;1.00;;;;;;5022622;28;20569;-80
2021/09/15 10:24:07;;;;;;;10.17;9.20;;;27.60;1.00;;;;;;4999617;28;20449;-79
2021/09/15 10:26:38;;;;;;;10.70;9.70;;;27.80;1.00;;;;;;4998516;28;20571;-80
2021/09/15 10:29:28;;;;;;;9.60;8.60;;;28.00;1.00;;;;;;4989948;28;25378;-80
2021/09/15 10:32:00;;;;;;;10.10;9.20;;;28.10;1.00;;;;;;5000923;28;21393;-80
2021/09/15 10:34:50;;;;;;;9.87;9.07;;;28.20;1.00;;;;;;4989057;28;20597;-80
2021/09/15 10:37:51;;;;;;;10.00;9.00;;;28.30;1.00;;;;;;5003181;28;20433;-81
2021/09/15 10:40:43;;;;;;;9.77;8.87;;;28.50;1.00;;;;;;4998898;28;20547;-81
2021/09/15 10:43:40;;;;;;;9.63;8.70;;;28.80;1.00;;;;;;5001795;28;20448;-80
2021/09/15 10:46:22;;;;;;;9.40;8.70;;;28.50;1.00;;;;;;4997810;28;20470;-78
2021/09/15 10:49:39;;;;;;;10.60;9.70;;;27.90;1.00;;;;;;5001707;28;20456;-79
2021/09/15 10:52:34;;;;;;;10.40;9.60;;;27.30;1.00;;;;;;4997011;28;20467;-78
2021/09/15 10:55:13;;;;;;;11.20;10.00;;;26.80;1.00;;;;;;4997346;28;20540;-79
2021/09/15 10:57:43;;;;;;;9.70;8.90;;;26.50;1.00;;;;;;5001612;28;20712;-78
2021/09/15 11:00:24;;;;;;;9.67;8.87;;;26.10;1.00;;;;;;5005268;28;20418;-77
2021/09/15 11:02:52;;;;;;;10.30;9.30;;;26.00;1.00;;;;;;5009076;28;20449;-79
2021/09/15 11:05:42;;;;;;;9.27;8.57;;;25.90;1.00;;;;;;5001239;28;20533;-79
2021/09/15 11:08:12;;;;;;;11.13;10.13;;;25.80;1.00;;;;;;5012677;28;21672;-78
2021/09/15 11:10:42;;;;;;;9.63;8.80;;;25.80;1.00;;;;;;4997866;28;21797;-80
2021/09/15 11:13:10;;;;;;;9.13;8.40;;;25.90;1.00;;;;;;5003505;28;20469;-78
2021/09/15 11:15:41;;;;;;;9.53;8.83;;;26.10;1.00;;;;;;4999424;28;20960;-78
2021/09/15 11:18:08;;;;;;;9.60;8.80;;;26.30;1.00;;;;;;5005951;28;20692;-79
2021/09/15 11:20:37;;;;;;;9.90;9.10;;;26.30;1.00;;;;;;5001017;28;20437;-79
2021/09/15 11:23:06;;;;;;;10.30;9.40;;;26.50;1.00;;;;;;5002208;28;20466;-80
2021/09/15 11:25:33;;;;;;;10.30;9.40;;;26.70;1.00;;;;;;4998814;28;20541;-76
2021/09/15 11:28:08;;;;;;;9.70;8.87;;;26.60;1.00;;;;;;5000589;28;20447;-79
2021/09/15 11:30:35;;;;;;;9.43;8.70;;;26.30;1.00;;;;;;4999071;28;20538;-78
2021/09/15 11:33:04;;;;;;;10.30;9.40;;;26.10;1.00;;;;;;4998845;28;20499;-80
2021/09/15 11:35:34;;;;;;;9.20;8.50;;;26.00;1.00;;;;;;5003096;28;20449;-79
2021/09/15 11:38:01;;;;;;;10.20;9.20;;;25.90;1.00;;;;;;4995302;28;20512;-79
2021/09/15 11:40:31;;;;;;;9.80;9.00;;;25.90;1.00;;;;;;5014019;28;20437;-77
2021/09/15 11:43:02;;;;;;;9.90;9.10;;;25.80;1.00;;;;;;5006555;28;21324;-80
2021/09/15 11:45:29;;;;;;;10.50;9.50;;;25.80;1.00;;;;;;5002123;28;20421;-81
2021/09/15 11:47:57;;;;;;;9.57;8.77;;;25.70;1.00;;;;;;5007561;28;20605;-81
2021/09/15 11:50:27;;;;;;;10.50;9.70;;;25.80;1.00;;;;;;5009501;28;20498;-79
2021/09/15 11:52:58;;;;;;;11.30;10.30;;;25.80;1.00;;;;;;5010751;28;20456;-81
2021/09/15 11:55:25;;;;;;;11.63;10.53;;;25.80;1.00;;;;;;5004931;28;20668;-81
2021/09/15 11:57:53;;;;;;;10.50;9.50;;;25.80;1.00;;;;;;5004135;28;20477;-82
2021/09/15 12:00:21;;;;;;;10.30;9.50;;;25.80;1.00;;;;;;5001155;28;20944;-80
2021/09/15 12:02:50;;;;;;;11.10;10.00;;;25.90;1.00;;;;;;5005167;28;20457;-81
2021/09/15 12:05:17;;;;;;;11.10;9.87;;;26.00;1.00;;;;;;5008037;28;20458;-80
2021/09/15 12:07:45;;;;;;;10.00;9.17;;;26.10;1.00;;;;;;5006930;28;20427;-79
2021/09/15 12:10:13;;;;;;;10.20;9.40;;;26.20;1.00;;;;;;5017800;28;20559;-78
2021/09/15 12:12:41;;;;;;;12.30;11.07;;;26.20;1.00;;;;;;5006660;28;20469;-79
2021/09/15 12:15:09;;;;;;;10.93;9.83;;;26.20;1.00;;;;;;5000853;28;20475;-80
2021/09/15 12:17:38;;;;;;;10.90;9.80;;;26.20;1.00;;;;;;5007991;28;20465;-81
2021/09/15 12:20:07;;;;;;;10.33;9.40;;;26.10;1.00;;;;;;5005126;28;20463;-81
2021/09/15 12:22:34;;;;;;;10.23;9.43;;;26.00;1.00;;;;;;5005388;28;20603;-80
2021/09/15 12:25:05;;;;;;;10.03;9.23;;;25.80;1.00;;;;;;5006971;28;20458;-80
2021/09/15 12:27:32;;;;;;;9.43;8.73;;;25.80;1.00;;;;;;5007868;28;20461;-80
2021/09/15 12:30:01;;;;;;;10.30;9.40;;;25.70;1.00;;;;;;5004054;28;20452;-79
2021/09/15 12:32:29;;;;;;;9.57;8.73;;;25.90;1.00;;;;;;5002526;28;20457;-79
2021/09/15 12:34:56;;;;;;;10.50;9.60;;;26.00;1.00;;;;;;5004851;28;21859;-79
2021/09/15 12:37:22;;;;;;;9.93;9.13;;;25.90;1.00;;;;;;5005954;28;20691;-80
2021/09/15 12:39:51;;;;;;;9.77;8.97;;;25.90;1.00;;;;;;5004443;28;20456;-81
2021/09/15 12:42:21;;;;;;;9.60;8.70;;;25.80;1.00;;;;;;5004985;28;20584;-79
2021/09/15 12:44:58;;;;;;;11.43;10.43;;;25.70;1.00;;;;;;5007213;28;20460;-79
2021/09/15 12:47:34;;;;;;;10.63;9.50;;;25.50;1.00;;;;;;5004851;28;20460;-81
2021/09/15 12:50:05;;;;;;;12.77;11.47;;;25.40;1.00;;;;;;5009456;28;20480;-79
2021/09/15 12:52:32;;;;;;;10.33;9.33;;;25.30;1.00;;;;;;5003987;28;20476;-80
2021/09/15 12:55:00;;;;;;;9.77;8.90;;;25.20;1.00;;;;;;4997467;28;20451;-78